createdAt,value
2022-09-26T00:01:41.690Z,9.40
2022-09-26T00:04:15.940Z,6.07
2022-09-26T00:06:44.399Z,7.40
2022-09-26T00:09:13.069Z,6.20
2022-09-26T00:11:41.495Z,7.13
2022-09-26T00:14:14.213Z,9.33
2022-09-26T00:16:43.104Z,9.70
2022-09-26T00:19:11.793Z,8.23
2022-09-26T00:21:40.495Z,7.83
2022-09-26T00:24:08.894Z,9.83
2022-09-26T00:26:39.003Z,13.87
2022-09-26T00:29:09.586Z,10.23
2022-09-26T00:31:41.488Z,9.43
2022-09-26T00:34:11.311Z,13.40
2022-09-26T00:36:39.734Z,10.33
2022-09-26T00:39:08.977Z,11.33
2022-09-26T00:41:38.233Z,13.63
2022-09-26T00:44:39.250Z,15.67
2022-09-26T00:47:21.253Z,14.77
2022-09-26T00:49:51.617Z,8.07
2022-09-26T00:52:22.383Z,13.73
2022-09-26T00:54:55.734Z,13.10
2022-09-26T00:57:27.533Z,9.23
2022-09-26T00:59:59.673Z,10.53
2022-09-26T01:02:30.451Z,9.90
2022-09-26T01:05:00.475Z,8.70
2022-09-26T01:07:31.153Z,11.60
2022-09-26T01:10:00.314Z,8.83
2022-09-26T01:12:28.483Z,10.03
2022-09-26T01:14:58.086Z,10.37
2022-09-26T01:17:27.524Z,6.43
2022-09-26T01:20:14.871Z,6.27
2022-09-26T01:23:37.759Z,7.47
2022-09-26T01:26:38.098Z,7.23
2022-09-26T01:29:40.225Z,7.17
2022-09-26T01:32:36.738Z,12.37
2022-09-26T01:35:13.013Z,8.30
2022-09-26T01:37:47.965Z,11.23
2022-09-26T01:40:22.304Z,8.37
2022-09-26T01:43:03.374Z,6.70
2022-09-26T01:45:40.958Z,7.77
2022-09-26T01:48:17.023Z,10.00
2022-09-26T01:50:51.384Z,9.77
2022-09-26T01:53:24.000Z,9.07
2022-09-26T01:55:57.760Z,10.03
2022-09-26T01:58:29.966Z,8.63
2022-09-26T02:01:02.288Z,8.87
2022-09-26T02:03:35.748Z,7.87
2022-09-26T02:06:09.055Z,11.20
2022-09-26T02:08:41.691Z,11.77
2022-09-26T02:11:13.556Z,5.73
2022-09-26T02:13:48.904Z,6.30
2022-09-26T02:16:22.531Z,10.90
2022-09-26T02:18:58.030Z,7.00
2022-09-26T02:21:26.352Z,6.37
2022-09-26T02:23:55.478Z,9.57
2022-09-26T02:26:24.878Z,5.67
2022-09-26T02:28:53.242Z,10.13
2022-09-26T02:31:25.549Z,4.57
2022-09-26T02:33:55.183Z,7.13
2022-09-26T02:36:24.116Z,7.07
2022-09-26T02:38:52.269Z,4.53
2022-09-26T02:41:29.727Z,7.53
2022-09-26T02:44:31.399Z,6.17
2022-09-26T02:47:19.479Z,8.60
2022-09-26T02:50:08.237Z,4.70
2022-09-26T02:52:44.342Z,5.40
2022-09-26T02:55:20.848Z,5.60
2022-09-26T02:58:05.832Z,5.63
2022-09-26T03:00:45.429Z,5.03
2022-09-26T03:03:21.136Z,7.13
2022-09-26T03:05:56.353Z,10.23
2022-09-26T03:08:27.669Z,9.67
2022-09-26T03:10:57.917Z,6.05
2022-09-26T03:13:27.888Z,8.43
2022-09-26T03:15:59.608Z,7.30
2022-09-26T03:18:31.018Z,3.83
2022-09-26T03:21:00.697Z,9.27
2022-09-26T03:23:30.338Z,4.93
2022-09-26T03:26:01.649Z,8.07
2022-09-26T03:28:33.966Z,6.33
2022-09-26T03:31:05.422Z,7.33
2022-09-26T03:33:34.207Z,5.97
2022-09-26T03:36:07.474Z,9.03
2022-09-26T03:38:35.647Z,6.27
2022-09-26T03:41:04.060Z,6.73
2022-09-26T03:43:32.409Z,7.13
2022-09-26T03:46:04.456Z,6.45
2022-09-26T03:48:32.852Z,4.60
2022-09-26T03:51:03.866Z,6.50
2022-09-26T03:53:34.343Z,8.10
2022-09-26T03:56:07.201Z,5.13
2022-09-26T03:58:35.602Z,5.07
2022-09-26T04:01:08.204Z,4.83
2022-09-26T04:03:37.849Z,6.68
2022-09-26T04:06:08.481Z,5.67
2022-09-26T04:08:39.206Z,4.60
2022-09-26T04:11:08.947Z,5.40
2022-09-26T04:13:51.238Z,7.72
2022-09-26T04:16:22.835Z,4.07
2022-09-26T04:18:51.296Z,3.87
2022-09-26T04:21:19.585Z,5.30
2022-09-26T04:23:50.239Z,5.55
2022-09-26T04:26:23.753Z,9.75
2022-09-26T04:28:54.738Z,4.00
2022-09-26T04:31:23.638Z,4.80
2022-09-26T04:33:52.158Z,6.73
2022-09-26T04:36:22.015Z,4.67
2022-09-26T04:38:51.606Z,8.20
2022-09-26T04:41:21.731Z,3.43
2022-09-26T04:43:50.196Z,6.07
2022-09-26T04:46:24.601Z,5.03
2022-09-26T04:48:56.531Z,4.33
2022-09-26T04:51:25.814Z,6.23
2022-09-26T04:53:55.731Z,4.77
2022-09-26T04:56:25.687Z,4.53
2022-09-26T04:58:56.213Z,5.03
2022-09-26T05:01:25.053Z,9.40
2022-09-26T05:03:55.136Z,3.23
2022-09-26T05:06:23.626Z,5.37
2022-09-26T05:08:51.992Z,6.57
2022-09-26T05:11:22.226Z,4.57
2022-09-26T05:13:53.896Z,6.37
2022-09-26T05:16:23.993Z,3.30
2022-09-26T05:18:53.056Z,6.70
2022-09-26T05:21:21.729Z,3.57
2022-09-26T05:24:07.540Z,5.93
2022-09-26T05:26:42.655Z,6.90
2022-09-26T05:29:12.131Z,5.23
2022-09-26T05:31:40.943Z,6.47
2022-09-26T05:34:15.468Z,10.03
2022-09-26T05:36:47.281Z,5.20
2022-09-26T05:39:32.995Z,5.07
2022-09-26T05:42:02.706Z,9.15
2022-09-26T05:44:31.818Z,6.30
2022-09-26T05:47:00.581Z,6.43
2022-09-26T05:49:29.016Z,8.60
2022-09-26T05:51:58.020Z,6.40
2022-09-26T05:54:26.406Z,5.70
2022-09-26T05:56:54.807Z,6.43
2022-09-26T05:59:24.621Z,6.60
2022-09-26T06:01:53.119Z,7.90
2022-09-26T06:04:21.445Z,6.55
2022-09-26T06:06:51.245Z,5.97
2022-09-26T06:09:19.577Z,8.60
2022-09-26T06:11:47.790Z,11.32
2022-09-26T06:14:21.063Z,8.63
2022-09-26T06:16:51.122Z,7.22
2022-09-26T06:19:22.805Z,9.27
2022-09-26T06:21:51.626Z,8.15
2022-09-26T06:24:20.606Z,8.20
2022-09-26T06:26:49.110Z,7.07
2022-09-26T06:29:17.273Z,7.40
2022-09-26T06:31:46.381Z,8.23
2022-09-26T06:34:16.208Z,6.63
2022-09-26T06:36:45.548Z,7.82
2022-09-26T06:39:14.829Z,5.72
2022-09-26T06:41:43.594Z,9.55
2022-09-26T06:44:11.929Z,9.48
2022-09-26T06:46:40.366Z,7.78
2022-09-26T06:49:08.810Z,7.97
2022-09-26T06:51:38.926Z,6.40
2022-09-26T06:54:07.396Z,7.18
2022-09-26T06:56:35.937Z,7.65
2022-09-26T06:59:04.563Z,4.25
2022-09-26T07:01:33.378Z,6.75
2022-09-26T07:04:01.729Z,6.60
2022-09-26T07:06:30.479Z,7.18
2022-09-26T07:09:03.881Z,5.80
2022-09-26T07:14:22.210Z,7.55
2022-09-26T07:16:51.140Z,8.50
2022-09-26T07:19:19.352Z,7.00
2022-09-26T07:21:48.852Z,7.65
2022-09-26T07:24:18.667Z,10.90
2022-09-26T07:26:46.966Z,9.73
2022-09-26T07:29:15.514Z,8.27
2022-09-26T07:31:44.026Z,8.75
2022-09-26T07:34:17.324Z,9.65
2022-09-26T07:36:47.741Z,10.80
2022-09-26T07:39:17.283Z,9.73
2022-09-26T07:41:46.801Z,10.20
2022-09-26T07:45:16.459Z,7.10
2022-09-26T07:47:22.004Z,11.50
2022-09-26T07:50:07.395Z,10.55
2022-09-26T07:52:36.126Z,10.43
2022-09-26T07:55:07.063Z,10.15
2022-09-26T07:57:35.562Z,10.18
2022-09-26T08:00:06.062Z,8.10
2022-09-26T08:02:35.891Z,12.63
2022-09-26T08:05:06.095Z,9.98
2022-09-26T08:07:35.564Z,6.63
2022-09-26T08:10:06.574Z,8.05
2022-09-26T08:12:39.104Z,7.68
2022-09-26T08:15:09.060Z,8.30
2022-09-26T08:17:38.179Z,7.47
2022-09-26T08:20:07.200Z,5.88
2022-09-26T08:22:35.499Z,8.88
2022-09-26T08:25:06.874Z,6.82
2022-09-26T08:27:36.191Z,4.68
2022-09-26T08:30:05.031Z,4.60
2022-09-26T08:32:33.787Z,5.65
2022-09-26T08:35:02.144Z,4.70
2022-09-26T08:37:31.126Z,4.57
2022-09-26T08:40:00.756Z,4.53
2022-09-26T08:42:40.351Z,5.80
2022-09-26T08:45:53.831Z,3.58
2022-09-26T08:48:39.567Z,2.60
2022-09-26T08:51:17.563Z,5.70
2022-09-26T08:53:53.079Z,4.82
2022-09-26T08:56:31.025Z,6.70
2022-09-26T08:59:03.336Z,5.63
2022-09-26T09:01:34.077Z,2.58
2022-09-26T09:04:07.301Z,4.03
2022-09-26T09:06:36.824Z,5.65
2022-09-26T09:09:05.350Z,4.93
2022-09-26T09:11:53.046Z,2.92
2022-09-26T09:14:40.743Z,4.57
2022-09-26T09:17:18.760Z,3.33
2022-09-26T09:19:56.659Z,3.65
2022-09-26T09:22:38.419Z,4.72
2022-09-26T09:25:16.392Z,6.32
2022-09-26T09:28:01.183Z,7.18
2022-09-26T09:30:41.299Z,3.28
2022-09-26T09:33:15.053Z,4.45
2022-09-26T09:35:47.919Z,2.50
2022-09-26T09:38:18.949Z,3.47
2022-09-26T09:40:53.996Z,1.40
2022-09-26T09:43:28.696Z,2.30
2022-09-26T09:46:05.293Z,3.03
2022-09-26T09:48:34.105Z,1.20
2022-09-26T09:51:13.371Z,1.30
2022-09-26T09:53:53.678Z,3.42
2022-09-26T09:56:33.012Z,1.83
2022-09-26T09:59:16.484Z,2.03
2022-09-26T10:01:49.724Z,2.78
2022-09-26T10:04:36.045Z,1.73
2022-09-26T10:07:05.583Z,4.53
2022-09-26T10:09:40.731Z,1.67
2022-09-26T10:12:17.066Z,2.97
2022-09-26T10:14:51.644Z,3.22
2022-09-26T10:17:23.832Z,3.45
2022-09-26T10:19:52.745Z,2.40
2022-09-26T10:22:29.310Z,7.10
2022-09-26T10:25:03.856Z,1.67
2022-09-26T10:27:38.481Z,1.48
2022-09-26T10:30:26.043Z,2.38
2022-09-26T10:32:59.970Z,2.07
2022-09-26T10:35:29.866Z,2.60
2022-09-26T10:38:02.472Z,2.40
2022-09-26T10:40:46.220Z,3.58
2022-09-26T10:43:30.631Z,5.13
2022-09-26T10:46:08.805Z,4.40
2022-09-26T10:48:48.272Z,4.87
2022-09-26T10:51:20.486Z,12.53
2022-09-26T10:53:52.117Z,14.30
2022-09-26T10:56:25.911Z,25.80
2022-09-26T10:58:59.306Z,13.70
2022-09-26T11:01:31.452Z,19.25
2022-09-26T11:04:13.817Z,22.27
2022-09-26T11:06:44.312Z,28.73
2022-09-26T11:09:20.488Z,20.33
2022-09-26T11:11:50.656Z,16.27
2022-09-26T11:14:29.121Z,13.03
2022-09-26T11:16:58.177Z,20.07
2022-09-26T11:19:39.934Z,20.00
2022-09-26T11:22:15.588Z,18.43
2022-09-26T11:24:50.660Z,11.70
2022-09-26T11:27:30.470Z,14.10
2022-09-26T11:30:03.090Z,11.17
2022-09-26T11:32:40.878Z,12.67
2022-09-26T11:35:15.857Z,14.10
2022-09-26T11:38:05.428Z,10.90
2022-09-26T11:40:50.155Z,10.93
2022-09-26T11:43:30.666Z,9.60
2022-09-26T11:46:15.542Z,17.42
2022-09-26T11:49:01.633Z,9.67
2022-09-26T11:51:46.113Z,9.10
2022-09-26T11:54:29.808Z,12.43
2022-09-26T11:57:08.741Z,15.93
2022-09-26T11:59:59.043Z,12.18
2022-09-26T12:03:05.082Z,14.07
2022-09-26T12:05:45.351Z,19.60
2022-09-26T12:08:29.428Z,11.93
2022-09-26T12:11:05.946Z,17.42
2022-09-26T12:13:47.205Z,14.70
2022-09-26T12:16:21.530Z,16.87
2022-09-26T12:18:58.378Z,20.13
2022-09-26T12:21:38.727Z,17.97
2022-09-26T12:24:21.246Z,22.40
2022-09-26T12:27:00.033Z,19.13
2022-09-26T12:29:40.179Z,21.03
2022-09-26T12:32:26.331Z,25.60
2022-09-26T12:35:14.975Z,27.23
2022-09-26T12:38:16.826Z,20.70
2022-09-26T12:40:55.669Z,21.92
2022-09-26T12:43:46.427Z,19.73
2022-09-26T12:46:41.976Z,20.05
2022-09-26T12:49:34.487Z,24.23
2022-09-26T12:52:14.345Z,23.13
2022-09-26T12:54:56.205Z,24.10
2022-09-26T12:57:32.913Z,24.80
2022-09-26T13:00:20.698Z,21.30
2022-09-26T13:03:23.387Z,15.45
2022-09-26T13:06:17.660Z,19.90
2022-09-26T13:08:57.401Z,19.63
2022-09-26T13:11:33.081Z,17.80
2022-09-26T13:14:35.128Z,23.33
2022-09-26T13:17:10.281Z,24.65
2022-09-26T13:19:43.486Z,14.23
2022-09-26T13:22:27.422Z,16.80
2022-09-26T13:25:03.302Z,26.35
2022-09-26T13:27:38.296Z,23.48
2022-09-26T13:30:15.062Z,18.70
2022-09-26T13:32:55.215Z,12.63
2022-09-26T13:35:25.354Z,12.15
2022-09-26T13:38:34.658Z,16.60
2022-09-26T13:41:11.744Z,21.77
2022-09-26T13:43:56.183Z,15.25
2022-09-26T13:46:37.415Z,18.15
2022-09-26T13:49:26.857Z,16.92
2022-09-26T13:52:10.720Z,17.15
2022-09-26T13:54:56.237Z,16.17
2022-09-26T13:57:39.027Z,14.98
2022-09-26T14:00:49.163Z,11.63
2022-09-26T14:03:48.979Z,17.73
2022-09-26T14:06:35.153Z,22.83
2022-09-26T14:09:29.494Z,18.45
2022-09-26T14:12:22.044Z,16.25
2022-09-26T14:15:16.921Z,22.13
2022-09-26T14:18:21.769Z,16.48
2022-09-26T14:21:08.836Z,20.30
2022-09-26T14:23:42.730Z,23.50
2022-09-26T14:26:13.741Z,17.77
2022-09-26T14:28:50.612Z,19.27
2022-09-26T14:31:35.051Z,23.55
2022-09-26T14:34:22.737Z,19.70
2022-09-26T14:36:55.935Z,21.35
2022-09-26T14:39:42.235Z,17.98
2022-09-26T14:42:22.733Z,24.67
2022-09-26T14:44:57.352Z,27.48
2022-09-26T14:47:28.248Z,25.58
2022-09-26T14:50:03.059Z,22.13
2022-09-26T14:52:34.375Z,21.63
2022-09-26T14:55:06.162Z,27.17
2022-09-26T14:57:36.254Z,22.07
2022-09-26T15:00:34.088Z,23.37
2022-09-26T15:03:06.399Z,18.30
2022-09-26T15:05:34.994Z,24.53
2022-09-26T15:08:05.450Z,24.03
2022-09-26T15:10:41.255Z,18.83
2022-09-26T15:13:20.738Z,12.43
2022-09-26T15:15:56.317Z,20.47
2022-09-26T15:18:34.752Z,14.23
2022-09-26T15:21:09.950Z,6.97
2022-09-26T15:23:47.795Z,9.00
2022-09-26T15:26:19.805Z,11.10
2022-09-26T15:28:50.628Z,13.33
2022-09-26T15:31:24.336Z,9.02
2022-09-26T15:33:59.689Z,15.67
2022-09-26T15:36:32.767Z,12.80
2022-09-26T15:39:08.030Z,11.32
2022-09-26T15:42:02.826Z,11.90
2022-09-26T15:44:31.420Z,6.33
2022-09-26T15:47:00.062Z,5.43
2022-09-26T15:49:28.658Z,5.80
2022-09-26T15:51:57.634Z,8.03
2022-09-26T15:54:31.145Z,9.10
2022-09-26T15:57:01.958Z,6.90
2022-09-26T15:59:34.653Z,7.70
2022-09-26T16:02:12.072Z,8.50
2022-09-26T16:04:42.227Z,19.50
2022-09-26T16:07:20.674Z,12.30
2022-09-26T16:09:51.905Z,15.57
2022-09-26T16:12:22.837Z,13.53
2022-09-26T16:14:53.253Z,11.60
2022-09-26T16:17:24.898Z,12.27
2022-09-26T16:19:54.734Z,11.70
2022-09-26T16:22:36.297Z,9.10
2022-09-26T16:28:20.984Z,8.27
2022-09-26T16:31:03.816Z,14.95
2022-09-26T16:33:33.520Z,12.37
2022-09-26T16:36:10.332Z,6.72
2022-09-26T16:38:38.782Z,9.33
2022-09-26T16:41:09.620Z,13.25
2022-09-26T16:43:40.120Z,13.07
2022-09-26T16:46:13.575Z,12.37
2022-09-26T16:48:43.404Z,11.63
2022-09-26T16:51:16.972Z,8.60
2022-09-26T16:53:46.795Z,11.47
2022-09-26T16:56:18.054Z,6.73
2022-09-26T16:58:52.945Z,6.93
2022-09-26T17:01:39.197Z,6.22
2022-09-26T17:04:12.828Z,13.23
2022-09-26T17:06:41.532Z,8.80
2022-09-26T17:09:16.748Z,8.48
2022-09-26T17:11:47.682Z,4.27
2022-09-26T17:14:19.701Z,14.18
2022-09-26T17:16:50.514Z,7.85
2022-09-26T17:19:19.280Z,10.00
2022-09-26T17:21:49.422Z,8.23
2022-09-26T17:24:20.281Z,6.97
2022-09-26T17:26:54.382Z,8.83
2022-09-26T17:29:27.715Z,6.45
2022-09-26T17:31:57.062Z,9.30
2022-09-26T17:34:27.137Z,10.63
2022-09-26T17:36:57.955Z,12.17
2022-09-26T17:39:26.713Z,8.50
2022-09-26T17:41:57.276Z,10.87
2022-09-26T17:44:27.135Z,11.75
2022-09-26T17:46:57.760Z,12.98
2022-09-26T17:49:28.870Z,6.45
2022-09-26T17:51:58.352Z,11.43
2022-09-26T17:54:31.300Z,5.33
2022-09-26T17:57:01.083Z,7.17
2022-09-26T17:59:30.741Z,14.27
2022-09-26T18:02:02.612Z,7.80
2022-09-26T18:04:31.491Z,11.53
2022-09-26T18:07:04.478Z,8.90
2022-09-26T18:09:35.265Z,9.03
2022-09-26T18:12:04.929Z,13.53
2022-09-26T18:14:35.458Z,17.87
2022-09-26T18:17:04.427Z,10.57
2022-09-26T18:19:38.247Z,9.60
2022-09-26T18:22:11.943Z,17.67
2022-09-26T18:24:40.342Z,11.03
2022-09-26T18:27:14.054Z,9.50
2022-09-26T18:29:47.290Z,9.17
2022-09-26T18:32:22.752Z,10.33
2022-09-26T18:34:51.777Z,7.87
2022-09-26T18:37:20.134Z,4.72
2022-09-26T18:39:53.596Z,11.70
2022-09-26T18:42:24.515Z,12.30
2022-09-26T18:45:00.283Z,14.53
2022-09-26T18:47:28.719Z,7.33
2022-09-26T18:49:57.270Z,5.13
2022-09-26T18:52:25.898Z,8.27
2022-09-26T18:55:08.024Z,10.83
2022-09-26T18:57:56.388Z,6.40
2022-09-26T19:00:27.528Z,9.53
2022-09-26T19:02:57.131Z,8.07
2022-09-26T19:05:26.298Z,4.83
2022-09-26T19:07:55.121Z,12.57
2022-09-26T19:10:24.146Z,6.93
2022-09-26T19:12:52.278Z,4.90
2022-09-26T19:15:20.581Z,3.93
2022-09-26T19:17:50.646Z,10.80
2022-09-26T19:20:19.075Z,7.30
2022-09-26T19:22:47.490Z,7.03
2022-09-26T19:25:16.017Z,8.63
2022-09-26T19:27:48.435Z,8.97
2022-09-26T19:30:19.981Z,15.53
2022-09-26T19:32:51.244Z,8.33
2022-09-26T19:35:24.229Z,9.87
2022-09-26T19:37:52.854Z,12.80
2022-09-26T19:40:22.651Z,13.20
2022-09-26T19:42:51.352Z,10.27
2022-09-26T19:45:20.720Z,12.37
2022-09-26T19:47:52.456Z,11.32
2022-09-26T19:50:23.093Z,8.80
2022-09-26T19:52:53.021Z,7.63
2022-09-26T19:55:24.228Z,13.77
2022-09-26T19:57:53.589Z,6.40
2022-09-26T20:00:21.978Z,10.57
2022-09-26T20:02:52.561Z,14.33
2022-09-26T20:05:23.048Z,4.63
2022-09-26T20:07:51.760Z,6.47
2022-09-26T20:10:21.475Z,12.07
2022-09-26T20:12:49.900Z,6.25
2022-09-26T20:15:20.293Z,5.40
2022-09-26T20:17:49.293Z,14.77
2022-09-26T20:20:22.541Z,7.00
2022-09-26T20:22:51.488Z,7.30
2022-09-26T20:25:26.763Z,9.80
2022-09-26T20:27:56.693Z,11.17
2022-09-26T20:30:43.032Z,8.73
2022-09-26T20:33:13.178Z,12.67
2022-09-26T20:35:45.829Z,10.35
2022-09-26T20:38:24.634Z,12.17
2022-09-26T20:41:00.397Z,9.67
2022-09-26T20:43:33.580Z,11.07
2022-09-26T20:46:04.491Z,8.97
2022-09-26T20:48:34.525Z,7.43
2022-09-26T20:51:05.562Z,8.53
2022-09-26T20:53:33.959Z,13.40
2022-09-26T20:56:03.933Z,10.53
2022-09-26T20:58:32.159Z,9.33
2022-09-26T21:01:01.020Z,10.00
2022-09-26T21:03:31.558Z,7.53
2022-09-26T21:06:00.309Z,10.15
2022-09-26T21:08:31.346Z,5.10
2022-09-26T21:10:59.680Z,8.30
2022-09-26T21:13:28.096Z,5.50
2022-09-26T21:15:56.508Z,10.63
2022-09-26T21:18:26.724Z,4.53
2022-09-26T21:20:55.363Z,11.13
2022-09-26T21:23:24.149Z,8.20
2022-09-26T21:25:53.769Z,9.80
2022-09-26T21:28:26.695Z,6.10
2022-09-26T21:30:56.060Z,6.73
2022-09-26T21:33:24.424Z,8.53
2022-09-26T21:35:53.548Z,13.10
2022-09-26T21:38:22.086Z,6.77
2022-09-26T21:40:57.253Z,10.60
2022-09-26T21:43:29.958Z,6.27
2022-09-26T21:45:58.657Z,12.40
2022-09-26T21:48:27.080Z,5.00
2022-09-26T21:50:58.652Z,10.63
2022-09-26T21:53:32.525Z,8.37
2022-09-26T21:56:07.665Z,4.60
2022-09-26T21:58:39.061Z,8.20
2022-09-26T22:01:07.446Z,3.73
2022-09-26T22:03:35.981Z,6.27
2022-09-26T22:06:07.354Z,6.73
2022-09-26T22:08:36.138Z,5.73
2022-09-26T22:11:06.235Z,4.73
2022-09-26T22:13:35.815Z,6.90
2022-09-26T22:16:08.060Z,7.40
2022-09-26T22:18:39.177Z,6.57
2022-09-26T22:21:07.921Z,7.40
2022-09-26T22:23:36.858Z,6.20
2022-09-26T22:26:07.555Z,6.03
2022-09-26T22:28:36.009Z,4.13
2022-09-26T22:31:05.281Z,8.37
2022-09-26T22:33:34.209Z,6.37
2022-09-26T22:36:02.834Z,7.40
2022-09-26T22:38:31.205Z,10.77
2022-09-26T22:41:00.107Z,7.90
2022-09-26T22:43:30.509Z,9.40
2022-09-26T22:46:03.198Z,3.43
2022-09-26T22:48:33.120Z,5.77
2022-09-26T22:51:01.554Z,7.53
2022-09-26T22:53:32.280Z,9.63
2022-09-26T22:56:05.240Z,6.33
2022-09-26T22:58:38.670Z,7.43
2022-09-26T23:01:09.540Z,6.53
2022-09-26T23:03:38.247Z,11.63
2022-09-26T23:06:07.347Z,4.63
2022-09-26T23:08:36.331Z,5.50
2022-09-26T23:11:05.533Z,7.10
2022-09-26T23:13:36.019Z,6.50
2022-09-26T23:16:06.217Z,4.90
2022-09-26T23:18:34.858Z,11.90
2022-09-26T23:21:07.696Z,9.23
2022-09-26T23:23:36.629Z,10.13
2022-09-26T23:26:06.304Z,3.50
2022-09-26T23:28:35.974Z,6.97
2022-09-26T23:31:08.180Z,6.33
2022-09-26T23:33:37.057Z,9.40
2022-09-26T23:36:06.657Z,5.77
2022-09-26T23:38:36.076Z,6.87
2022-09-26T23:41:04.439Z,4.57
2022-09-26T23:43:32.852Z,3.63
2022-09-26T23:46:02.808Z,5.60
2022-09-26T23:48:31.002Z,5.47
2022-09-26T23:50:59.261Z,9.77
2022-09-26T23:53:27.859Z,11.57
2022-09-26T23:56:04.665Z,9.47
2022-09-26T23:58:33.341Z,3.47
